createdAt,value
2019-02-19T00:00:26.957Z,24.93
2019-02-19T00:02:57.317Z,25.00
2019-02-19T00:05:27.692Z,24.83
2019-02-19T00:07:58.071Z,24.07
2019-02-19T00:10:28.408Z,24.70
2019-02-19T00:12:58.808Z,25.00
2019-02-19T00:15:29.165Z,25.93
2019-02-19T00:17:59.637Z,24.20
2019-02-19T00:20:30.000Z,24.63
2019-02-19T00:23:00.468Z,24.03
2019-02-19T00:25:30.797Z,24.03
2019-02-19T00:28:01.278Z,23.93
2019-02-19T00:30:31.627Z,22.33
2019-02-19T00:33:02.019Z,24.20
2019-02-19T00:35:32.363Z,23.57
2019-02-19T00:38:02.740Z,23.83
2019-02-19T00:40:33.113Z,23.70
2019-02-19T00:43:03.620Z,24.20
2019-02-19T00:45:33.977Z,25.23
2019-02-19T00:48:04.397Z,25.00
2019-02-19T00:50:34.741Z,26.10
2019-02-19T00:53:05.141Z,24.53
2019-02-19T00:55:35.494Z,25.77
2019-02-19T00:58:05.872Z,25.70
2019-02-19T01:00:36.233Z,25.93
2019-02-19T01:03:06.705Z,24.87
2019-02-19T01:05:37.056Z,24.53
2019-02-19T01:08:07.447Z,25.23
2019-02-19T01:10:37.861Z,25.67
2019-02-19T01:13:08.258Z,24.63
2019-02-19T01:15:38.597Z,25.13
2019-02-19T01:18:09.201Z,23.97
2019-02-19T01:20:39.537Z,24.40
2019-02-19T01:23:09.908Z,25.87
2019-02-19T01:25:41.309Z,25.43
2019-02-19T01:28:11.664Z,24.50
2019-02-19T01:30:42.001Z,24.57
2019-02-19T01:33:12.445Z,23.57
2019-02-19T01:35:42.778Z,25.57
2019-02-19T01:38:13.236Z,25.03
2019-02-19T01:40:43.570Z,24.67
2019-02-19T01:43:14.221Z,23.97
2019-02-19T01:45:44.543Z,24.67
2019-02-19T01:48:14.901Z,22.63
2019-02-19T01:50:45.227Z,24.20
2019-02-19T01:53:15.631Z,26.37
2019-02-19T01:55:45.937Z,24.70
2019-02-19T01:58:16.284Z,23.10
2019-02-19T02:00:46.616Z,22.73
2019-02-19T02:03:16.973Z,22.10
2019-02-19T02:05:47.305Z,23.87
2019-02-19T02:08:17.672Z,25.47
2019-02-19T02:10:48.025Z,22.97
2019-02-19T02:13:18.366Z,24.17
2019-02-19T02:15:49.514Z,24.70
2019-02-19T02:18:19.852Z,22.67
2019-02-19T02:23:22.975Z,25.20
2019-02-19T02:25:53.409Z,25.47
2019-02-19T02:28:23.742Z,25.33
2019-02-19T02:30:54.130Z,23.90
2019-02-19T02:33:24.467Z,23.33
2019-02-19T02:35:54.924Z,25.10
2019-02-19T02:38:25.252Z,23.37
2019-02-19T02:40:56.703Z,23.57
2019-02-19T02:43:27.080Z,23.20
2019-02-19T02:45:57.454Z,22.80
2019-02-19T02:48:27.782Z,22.73
2019-02-19T02:50:58.526Z,24.03
2019-02-19T02:53:28.863Z,25.30
2019-02-19T02:55:59.237Z,22.97
2019-02-19T02:58:29.569Z,23.53
2019-02-19T03:00:59.942Z,21.87
2019-02-19T03:03:30.282Z,23.03
2019-02-19T03:06:24.293Z,22.43
2019-02-19T03:08:54.634Z,24.57
2019-02-19T03:11:25.050Z,25.23
2019-02-19T03:13:55.386Z,23.13
2019-02-19T03:16:25.749Z,22.93
2019-02-19T03:18:56.120Z,23.70
2019-02-19T03:21:26.445Z,24.43
2019-02-19T03:23:56.797Z,22.27
2019-02-19T03:26:27.451Z,23.83
2019-02-19T03:28:57.816Z,23.70
2019-02-19T03:31:29.225Z,22.73
2019-02-19T03:33:59.617Z,23.43
2019-02-19T03:36:29.928Z,23.77
2019-02-19T03:39:00.309Z,22.33
2019-02-19T03:41:30.633Z,23.07
2019-02-19T03:44:01.072Z,23.40
2019-02-19T03:46:31.390Z,23.67
2019-02-19T03:49:01.743Z,21.63
2019-02-19T03:51:32.134Z,20.87
2019-02-19T03:54:02.434Z,22.07
2019-02-19T03:56:32.797Z,23.10
2019-02-19T03:59:03.125Z,21.83
2019-02-19T04:01:33.584Z,22.03
2019-02-19T04:04:03.942Z,23.10
2019-02-19T04:06:34.293Z,21.60
2019-02-19T04:09:05.617Z,22.00
2019-02-19T04:11:35.981Z,20.00
2019-02-19T04:14:06.310Z,23.50
2019-02-19T04:16:36.670Z,22.63
2019-02-19T04:19:07.026Z,21.53
2019-02-19T04:21:37.392Z,21.27
2019-02-19T04:24:07.736Z,19.90
2019-02-19T04:26:38.183Z,20.10
2019-02-19T04:29:08.525Z,20.43
2019-02-19T04:31:38.881Z,19.77
2019-02-19T04:34:09.222Z,20.10
2019-02-19T04:36:39.617Z,20.43
2019-02-19T04:39:09.983Z,20.40
2019-02-19T04:41:40.334Z,19.20
2019-02-19T04:44:10.733Z,19.67
2019-02-19T04:46:41.082Z,20.47
2019-02-19T04:49:11.414Z,19.90
2019-02-19T04:51:41.771Z,19.00
2019-02-19T04:54:12.117Z,17.97
2019-02-19T04:56:42.444Z,18.27
2019-02-19T04:59:12.803Z,19.77
2019-02-19T05:01:43.134Z,19.53
2019-02-19T05:04:13.493Z,18.73
2019-02-19T05:06:43.832Z,17.83
2019-02-19T05:09:14.179Z,18.40
2019-02-19T05:11:44.504Z,17.63
2019-02-19T05:14:14.857Z,17.70
2019-02-19T05:16:45.188Z,18.33
2019-02-19T05:19:15.569Z,17.70
2019-02-19T05:21:45.939Z,17.33
2019-02-19T05:24:17.184Z,18.83
2019-02-19T05:26:47.514Z,17.07
2019-02-19T05:29:17.976Z,17.17
2019-02-19T05:31:48.306Z,18.90
2019-02-19T05:34:18.665Z,17.13
2019-02-19T05:36:49.154Z,17.67
2019-02-19T05:39:19.499Z,18.20
2019-02-19T05:41:49.841Z,18.00
2019-02-19T05:44:20.217Z,17.30
2019-02-19T05:46:50.582Z,17.30
2019-02-19T05:49:20.937Z,16.93
2019-02-19T05:51:51.649Z,16.87
2019-02-19T05:54:22.300Z,17.27
2019-02-19T05:56:53.012Z,16.37
2019-02-19T05:59:23.344Z,16.97
2019-02-19T06:01:53.692Z,17.37
2019-02-19T06:04:24.041Z,16.33
2019-02-19T06:06:54.400Z,16.90
2019-02-19T06:09:24.746Z,16.43
2019-02-19T06:11:55.144Z,15.70
2019-02-19T06:14:25.482Z,16.13
2019-02-19T06:16:58.551Z,15.03
2019-02-19T06:19:39.409Z,14.77
2019-02-19T06:22:09.781Z,14.83
2019-02-19T06:24:40.116Z,15.83
2019-02-19T06:27:10.557Z,16.07
2019-02-19T06:29:40.889Z,15.20
2019-02-19T06:32:11.257Z,16.00
2019-02-19T06:34:41.601Z,15.57
2019-02-19T06:37:11.969Z,15.53
2019-02-19T06:39:42.300Z,15.20
2019-02-19T06:42:12.648Z,14.90
2019-02-19T06:44:43.065Z,14.77
2019-02-19T06:47:13.533Z,14.60
2019-02-19T06:49:43.865Z,14.57
2019-02-19T06:52:14.236Z,14.67
2019-02-19T06:54:45.041Z,14.40
2019-02-19T06:57:15.417Z,13.83
2019-02-19T06:59:45.767Z,14.50
2019-02-19T07:02:25.639Z,15.27
2019-02-19T07:04:58.377Z,14.30
2019-02-19T07:07:28.852Z,14.90
2019-02-19T07:09:59.176Z,13.93
2019-02-19T07:12:48.585Z,13.87
2019-02-19T07:15:18.925Z,14.90
2019-02-19T07:17:49.289Z,14.57
2019-02-19T07:20:19.622Z,14.53
2019-02-19T07:22:50.069Z,14.37
2019-02-19T07:25:20.405Z,13.77
2019-02-19T07:27:50.775Z,14.03
2019-02-19T07:30:21.133Z,13.80
2019-02-19T07:32:51.453Z,14.40
2019-02-19T07:35:21.815Z,13.57
2019-02-19T07:37:52.145Z,14.03
2019-02-19T07:40:22.585Z,13.53
2019-02-19T07:42:52.944Z,13.67
2019-02-19T07:45:23.487Z,14.37
2019-02-19T07:47:53.877Z,14.07
2019-02-19T07:50:24.326Z,14.40
2019-02-19T07:52:54.661Z,12.93
2019-02-19T07:55:25.110Z,13.90
2019-02-19T07:57:55.425Z,13.00
2019-02-19T08:00:25.777Z,14.50
2019-02-19T08:02:56.130Z,13.40
2019-02-19T08:05:26.462Z,12.23
2019-02-19T08:07:56.821Z,12.80
2019-02-19T08:10:27.153Z,13.30
2019-02-19T08:12:57.516Z,13.03
2019-02-19T08:15:27.849Z,13.70
2019-02-19T08:17:58.314Z,13.60
2019-02-19T08:20:28.633Z,13.13
2019-02-19T08:23:00.085Z,13.10
2019-02-19T08:25:30.401Z,13.33
2019-02-19T08:28:00.765Z,13.10
2019-02-19T08:30:31.125Z,13.83
2019-02-19T08:33:01.506Z,12.93
2019-02-19T08:35:31.837Z,14.83
2019-02-19T08:38:02.304Z,13.60
2019-02-19T08:40:32.756Z,13.73
2019-02-19T08:43:03.121Z,13.60
2019-02-19T08:45:33.520Z,14.20
2019-02-19T08:48:03.877Z,13.80
2019-02-19T08:50:34.212Z,13.43
2019-02-19T08:53:04.570Z,13.53
2019-02-19T08:55:35.000Z,13.33
2019-02-19T08:58:05.361Z,13.73
2019-02-19T09:00:35.717Z,14.40
2019-02-19T09:03:06.063Z,14.63
2019-02-19T09:05:36.418Z,14.10
2019-02-19T09:08:06.745Z,15.17
2019-02-19T09:10:37.105Z,15.57
2019-02-19T09:13:07.441Z,15.33
2019-02-19T09:15:37.807Z,16.57
2019-02-19T09:18:08.149Z,15.23
2019-02-19T09:20:38.533Z,15.77
2019-02-19T09:23:08.861Z,15.60
2019-02-19T09:25:39.233Z,16.03
2019-02-19T09:28:09.561Z,16.07
2019-02-19T09:30:40.041Z,17.13
2019-02-19T09:33:10.369Z,16.70
2019-02-19T09:35:40.738Z,17.70
2019-02-19T09:38:11.098Z,17.83
2019-02-19T09:40:41.461Z,17.97
2019-02-19T09:43:11.850Z,17.27
2019-02-19T09:45:42.238Z,18.97
2019-02-19T09:48:12.594Z,19.33
2019-02-19T09:50:42.929Z,17.30
2019-02-19T09:53:13.665Z,18.07
2019-02-19T09:55:43.999Z,18.63
2019-02-19T09:58:14.377Z,18.73
2019-02-19T10:00:44.726Z,19.63
2019-02-19T10:03:15.677Z,20.30
2019-02-19T10:05:48.031Z,20.80
2019-02-19T10:08:18.053Z,21.27
2019-02-19T10:10:48.385Z,21.70
2019-02-19T10:13:18.736Z,21.60
2019-02-19T10:15:49.073Z,23.00
2019-02-19T10:18:19.455Z,21.53
2019-02-19T10:20:51.625Z,22.33
2019-02-19T10:23:21.781Z,22.67
2019-02-19T10:25:52.108Z,22.97
2019-02-19T10:28:22.561Z,22.23
2019-02-19T10:30:52.901Z,22.17
2019-02-19T10:33:23.352Z,21.73
2019-02-19T10:35:53.718Z,21.23
2019-02-19T10:38:24.084Z,21.33
2019-02-19T10:40:54.425Z,20.27
2019-02-19T10:43:24.802Z,20.07
2019-02-19T10:45:55.634Z,17.73
2019-02-19T10:48:25.970Z,19.70
2019-02-19T10:50:56.345Z,19.07
2019-02-19T10:53:27.743Z,18.60
2019-02-19T10:55:58.108Z,18.60
2019-02-19T10:58:28.448Z,17.83
2019-02-19T11:00:59.126Z,19.10
2019-02-19T11:03:29.465Z,18.27
2019-02-19T11:06:00.309Z,16.17
2019-02-19T11:08:30.647Z,17.67
2019-02-19T11:11:01.093Z,17.40
2019-02-19T11:13:31.774Z,16.33
2019-02-19T11:16:03.404Z,17.37
2019-02-19T11:18:33.882Z,17.43
2019-02-19T11:21:04.285Z,16.87
2019-02-19T11:23:34.627Z,16.97
2019-02-19T11:26:05.016Z,17.17
2019-02-19T11:28:35.349Z,17.27
2019-02-19T11:31:05.713Z,17.13
2019-02-19T11:33:36.073Z,17.50
2019-02-19T11:36:06.409Z,17.43
2019-02-19T11:38:36.761Z,16.07
2019-02-19T11:41:07.097Z,17.57
2019-02-19T11:43:37.457Z,17.60
2019-02-19T11:46:07.853Z,16.67
2019-02-19T11:48:38.299Z,12.63
2019-02-19T11:51:08.633Z,16.10
2019-02-19T11:53:38.993Z,16.63
2019-02-19T11:56:09.325Z,16.33
2019-02-19T11:58:39.689Z,15.33
2019-02-19T12:01:10.049Z,14.93
2019-02-19T12:03:40.459Z,15.10
2019-02-19T12:06:10.813Z,15.37
2019-02-19T12:08:41.205Z,14.50
2019-02-19T12:11:12.613Z,14.53
2019-02-19T12:13:42.978Z,14.23
2019-02-19T12:16:13.317Z,14.47
2019-02-19T12:18:46.136Z,14.67
2019-02-19T12:21:15.669Z,14.70
2019-02-19T12:23:46.122Z,15.27
2019-02-19T12:26:16.466Z,15.03
2019-02-19T12:28:47.986Z,14.27
2019-02-19T12:31:18.321Z,14.13
2019-02-19T12:33:48.684Z,14.27
2019-02-19T12:36:19.045Z,14.70
2019-02-19T12:38:49.378Z,15.03
2019-02-19T12:41:19.753Z,14.40
2019-02-19T12:43:51.051Z,14.80
2019-02-19T12:46:21.489Z,14.57
2019-02-19T12:48:54.708Z,15.00
2019-02-19T12:51:26.445Z,14.70
2019-02-19T12:53:56.617Z,15.47
2019-02-19T12:56:26.957Z,14.97
2019-02-19T12:58:57.325Z,15.60
2019-02-19T13:01:27.669Z,14.37
2019-02-19T13:03:58.049Z,15.17
2019-02-19T13:06:28.378Z,15.60
2019-02-19T13:08:58.943Z,14.90
2019-02-19T13:11:29.276Z,15.90
2019-02-19T13:13:59.636Z,16.07
2019-02-19T13:16:29.993Z,15.27
2019-02-19T13:19:03.427Z,15.47
2019-02-19T13:21:32.749Z,14.87
2019-02-19T13:24:03.090Z,15.60
2019-02-19T13:26:33.546Z,14.80
2019-02-19T13:29:03.887Z,15.47
2019-02-19T13:31:34.345Z,14.47
2019-02-19T13:34:04.685Z,15.13
2019-02-19T13:36:47.237Z,14.63
2019-02-19T13:39:29.298Z,14.70
2019-02-19T13:41:59.689Z,15.50
2019-02-19T13:44:30.022Z,13.53
2019-02-19T13:47:00.389Z,12.13
2019-02-19T13:49:31.113Z,12.40
2019-02-19T13:52:08.789Z,10.57
2019-02-19T13:54:48.443Z,10.97
2019-02-19T13:57:18.785Z,11.30
2019-02-19T13:59:49.184Z,10.10
2019-02-19T14:02:19.510Z,10.43
2019-02-19T14:04:50.030Z,10.73
2019-02-19T14:07:20.380Z,10.83
2019-02-19T14:09:50.773Z,11.30
2019-02-19T14:12:21.150Z,11.03
2019-02-19T14:14:56.397Z,11.27
2019-02-19T14:17:26.748Z,9.90
2019-02-19T14:20:04.949Z,10.23
2019-02-19T14:23:03.969Z,10.63
2019-02-19T14:26:02.486Z,11.10
2019-02-19T14:28:56.624Z,10.03
2019-02-19T14:31:49.102Z,10.87
2019-02-19T14:34:37.202Z,10.40
2019-02-19T14:37:33.734Z,10.10
2019-02-19T14:40:29.373Z,10.13
2019-02-19T14:43:24.906Z,10.17
2019-02-19T14:46:13.393Z,10.20
2019-02-19T14:48:56.293Z,10.20
2019-02-19T14:51:54.292Z,9.90
2019-02-19T14:54:46.675Z,9.73
2019-02-19T14:57:38.741Z,9.97
2019-02-19T15:00:28.301Z,10.30
2019-02-19T15:03:23.627Z,10.70
2019-02-19T15:06:31.085Z,10.50
2019-02-19T15:09:32.483Z,10.03
2019-02-19T15:12:33.713Z,9.77
2019-02-19T15:15:32.097Z,9.57
2019-02-19T15:18:20.521Z,9.17
2019-02-19T15:21:15.580Z,9.30
2019-02-19T15:24:04.636Z,9.20
2019-02-19T15:26:56.686Z,8.93
2019-02-19T15:29:46.125Z,8.23
2019-02-19T15:32:35.401Z,7.87
2019-02-19T15:35:25.433Z,7.97
2019-02-19T15:38:30.048Z,8.47
2019-02-19T15:41:18.329Z,7.73
2019-02-19T15:44:06.510Z,8.23
2019-02-19T15:46:58.597Z,8.03
2019-02-19T15:49:49.994Z,7.53
2019-02-19T15:52:43.145Z,7.97
2019-02-19T15:55:38.260Z,7.47
2019-02-19T15:58:25.393Z,7.43
2019-02-19T16:01:13.297Z,7.47
2019-02-19T16:04:02.736Z,6.77
2019-02-19T16:06:57.845Z,7.30
2019-02-19T16:09:49.141Z,6.63
2019-02-19T16:12:30.601Z,6.77
2019-02-19T16:15:14.301Z,6.77
2019-02-19T16:18:22.154Z,6.57
2019-02-19T16:21:07.359Z,6.13
2019-02-19T16:24:02.425Z,6.17
2019-02-19T16:26:43.874Z,6.80
2019-02-19T16:29:35.949Z,5.70
2019-02-19T16:32:23.518Z,5.60
2019-02-19T16:35:15.794Z,5.57
2019-02-19T16:38:03.361Z,5.30
2019-02-19T16:40:55.645Z,5.13
2019-02-19T16:43:43.101Z,5.43
2019-02-19T16:46:35.377Z,5.37
2019-02-19T16:49:11.549Z,5.50
2019-02-19T16:52:09.936Z,5.43
2019-02-19T16:54:45.792Z,4.97
2019-02-19T16:57:44.333Z,5.13
2019-02-19T17:00:20.429Z,5.23
2019-02-19T17:03:24.710Z,5.50
2019-02-19T17:06:10.486Z,5.47
2019-02-19T17:09:00.495Z,5.67
2019-02-19T17:11:59.053Z,5.40
2019-02-19T17:14:48.313Z,5.20
2019-02-19T17:17:37.625Z,6.00
2019-02-19T17:20:30.297Z,6.30
2019-02-19T17:23:09.557Z,6.43
2019-02-19T17:26:08.219Z,5.73
2019-02-19T17:28:57.518Z,5.80
2019-02-19T17:31:49.537Z,6.10
2019-02-19T17:34:36.339Z,5.90
2019-02-19T17:37:25.620Z,6.80
2019-02-19T17:40:27.059Z,7.07
2019-02-19T17:43:21.329Z,5.80
2019-02-19T17:46:14.069Z,5.10
2019-02-19T17:48:57.513Z,6.23
2019-02-19T17:51:49.749Z,5.60
2019-02-19T17:54:27.375Z,5.60
2019-02-19T17:57:32.012Z,5.90
2019-02-19T18:00:30.400Z,6.03
2019-02-19T18:03:35.233Z,5.63
2019-02-19T18:06:36.217Z,5.70
2019-02-19T18:09:16.330Z,4.93
2019-02-19T18:12:03.721Z,5.23
2019-02-19T18:14:52.329Z,4.67
2019-02-19T18:17:40.190Z,4.63
2019-02-19T18:20:10.553Z,4.60
2019-02-19T18:22:41.534Z,4.70
2019-02-19T18:25:11.901Z,4.30
2019-02-19T18:27:42.225Z,4.23
2019-02-19T18:30:12.582Z,4.53
2019-02-19T18:32:42.934Z,4.33
2019-02-19T18:35:13.389Z,4.40
2019-02-19T18:37:43.725Z,4.60
2019-02-19T18:40:14.085Z,4.10
2019-02-19T18:42:44.417Z,4.30
2019-02-19T18:45:14.787Z,4.10
2019-02-19T18:47:45.097Z,4.30
2019-02-19T18:50:15.513Z,3.87
2019-02-19T18:52:45.853Z,4.40
2019-02-19T18:55:16.202Z,4.23
2019-02-19T18:57:46.525Z,5.03
2019-02-19T19:00:17.231Z,4.47
2019-02-19T19:02:47.557Z,4.30
2019-02-19T19:05:17.933Z,3.87
2019-02-19T19:07:48.270Z,4.47
2019-02-19T19:10:18.629Z,4.33
2019-02-19T19:12:48.982Z,4.90
2019-02-19T19:15:19.352Z,5.67
2019-02-19T19:17:49.702Z,5.93
2019-02-19T19:20:20.029Z,5.90
2019-02-19T19:22:50.381Z,6.40
2019-02-19T19:25:20.718Z,7.07
2019-02-19T19:27:51.069Z,7.23
2019-02-19T19:30:21.401Z,6.60
2019-02-19T19:32:51.769Z,6.70
2019-02-19T19:35:22.103Z,6.47
2019-02-19T19:37:52.518Z,7.50
2019-02-19T19:40:22.845Z,7.03
2019-02-19T19:42:53.347Z,7.13
2019-02-19T19:45:23.677Z,7.37
2019-02-19T19:47:54.063Z,7.20
2019-02-19T19:50:24.413Z,7.70
2019-02-19T19:52:54.790Z,6.57
2019-02-19T19:55:25.560Z,6.93
2019-02-19T19:57:55.885Z,6.97
2019-02-19T20:00:26.337Z,7.20
2019-02-19T20:02:56.738Z,6.77
2019-02-19T20:05:27.101Z,6.17
2019-02-19T20:07:57.489Z,6.37
2019-02-19T20:10:27.858Z,6.20
2019-02-19T20:12:58.171Z,6.17
2019-02-19T20:15:28.525Z,6.37
2019-02-19T20:17:59.237Z,5.53
2019-02-19T20:20:30.022Z,6.30
2019-02-19T20:23:00.694Z,6.07
2019-02-19T20:25:31.075Z,5.90
2019-02-19T20:28:01.409Z,6.43
2019-02-19T20:30:31.893Z,5.80
2019-02-19T20:33:02.242Z,6.90
2019-02-19T20:35:32.597Z,7.63
2019-02-19T20:38:02.961Z,5.90
2019-02-19T20:40:33.294Z,5.93
2019-02-19T20:43:03.670Z,6.37
2019-02-19T20:45:34.397Z,5.77
2019-02-19T20:48:04.958Z,6.27
2019-02-19T20:50:35.440Z,6.00
2019-02-19T20:53:05.825Z,5.87
2019-02-19T20:55:37.414Z,5.77
2019-02-19T20:58:08.748Z,6.63
2019-02-19T21:00:39.074Z,5.90
2019-02-19T21:03:10.930Z,6.60
2019-02-19T21:05:41.342Z,6.63
2019-02-19T21:08:11.689Z,6.50
2019-02-19T21:10:42.041Z,6.90
2019-02-19T21:13:12.378Z,6.40
2019-02-19T21:15:42.914Z,6.50
2019-02-19T21:18:14.726Z,6.37
2019-02-19T21:20:45.153Z,6.87
2019-02-19T21:23:15.656Z,7.10
2019-02-19T21:25:46.128Z,7.70
2019-02-19T21:28:16.745Z,7.50
2019-02-19T21:30:47.590Z,7.27
2019-02-19T21:33:17.989Z,7.43
2019-02-19T21:35:48.396Z,7.73
2019-02-19T21:38:18.725Z,7.87
2019-02-19T21:40:49.102Z,8.10
2019-02-19T21:43:19.457Z,7.90
2019-02-19T21:45:50.256Z,8.20
2019-02-19T21:48:20.657Z,7.33
2019-02-19T21:50:51.389Z,7.93
2019-02-19T21:53:22.393Z,8.13
2019-02-19T21:55:52.761Z,7.87
2019-02-19T21:58:23.095Z,7.97
2019-02-19T22:00:54.707Z,7.83
2019-02-19T22:03:25.105Z,7.40
2019-02-19T22:05:55.554Z,7.37
2019-02-19T22:08:25.993Z,7.37
2019-02-19T22:10:56.669Z,7.10
2019-02-19T22:13:27.073Z,7.60
2019-02-19T22:15:57.513Z,7.77
2019-02-19T22:18:27.845Z,8.47
2019-02-19T22:21:16.045Z,7.73
2019-02-19T22:23:46.383Z,7.57
2019-02-19T22:26:16.729Z,7.17
2019-02-19T22:28:47.078Z,7.93
2019-02-19T22:31:17.436Z,7.50
2019-02-19T22:33:47.751Z,7.60
2019-02-19T22:36:18.198Z,7.73
2019-02-19T22:38:48.560Z,7.67
2019-02-19T22:41:19.609Z,7.13
2019-02-19T22:43:49.941Z,7.70
2019-02-19T22:46:20.316Z,6.83
2019-02-19T22:48:50.638Z,8.13
2019-02-19T22:51:21.036Z,7.50
2019-02-19T22:54:01.521Z,7.47
2019-02-19T22:56:34.801Z,7.90
2019-02-19T22:59:05.132Z,7.47
2019-02-19T23:01:38.797Z,7.77
2019-02-19T23:04:09.201Z,8.13
2019-02-19T23:06:39.660Z,7.83
2019-02-19T23:09:10.277Z,8.97
2019-02-19T23:11:40.794Z,8.50
2019-02-19T23:14:11.113Z,7.47
2019-02-19T23:16:41.561Z,8.37
2019-02-19T23:19:11.956Z,8.30
2019-02-19T23:21:42.334Z,8.73
2019-02-19T23:24:12.653Z,8.33
2019-02-19T23:26:43.089Z,9.03
2019-02-19T23:29:13.428Z,9.20
2019-02-19T23:31:44.219Z,8.87
2019-02-19T23:34:14.541Z,9.10
2019-02-19T23:36:50.961Z,9.83
2019-02-19T23:39:21.277Z,8.37
2019-02-19T23:41:52.029Z,9.20
2019-02-19T23:44:22.377Z,8.73
2019-02-19T23:46:52.730Z,9.03
2019-02-19T23:49:23.057Z,9.50
2019-02-19T23:51:53.462Z,9.63
2019-02-19T23:54:23.793Z,8.80
2019-02-19T23:56:55.217Z,9.17
2019-02-19T23:59:25.841Z,9.13
